sensor_id;sensor_type;location;lat;lon;timestamp;P1;durP1;ratioP1;P2;durP2;ratioP2
39674;SDS011;27790;50.840;4.386;2024-01-06T00:02:07;7.65;;;2.40;;
39674;SDS011;27790;50.840;4.386;2024-01-06T00:04:33;8.02;;;2.63;;
39674;SDS011;27790;50.840;4.386;2024-01-06T00:06:59;7.35;;;3.38;;
39674;SDS011;27790;50.840;4.386;2024-01-06T00:09:24;7.20;;;2.83;;
39674;SDS011;27790;50.840;4.386;2024-01-06T00:11:50;7.22;;;2.88;;
39674;SDS011;27790;50.840;4.386;2024-01-06T00:14:16;10.07;;;2.75;;
39674;SDS011;27790;50.840;4.386;2024-01-06T00:16:41;7.10;;;2.22;;
39674;SDS011;27790;50.840;4.386;2024-01-06T00:19:07;7.82;;;2.80;;
39674;SDS011;27790;50.840;4.386;2024-01-06T00:21:32;4.57;;;3.00;;
39674;SDS011;27790;50.840;4.386;2024-01-06T00:23:58;5.93;;;2.67;;
39674;SDS011;27790;50.840;4.386;2024-01-06T00:26:23;7.57;;;2.53;;
39674;SDS011;27790;50.840;4.386;2024-01-06T00:28:52;6.53;;;2.72;;
39674;SDS011;27790;50.840;4.386;2024-01-06T00:31:17;9.50;;;3.83;;
39674;SDS011;27790;50.840;4.386;2024-01-06T00:33:43;7.18;;;2.75;;
39674;SDS011;27790;50.840;4.386;2024-01-06T00:36:09;6.45;;;2.88;;
39674;SDS011;27790;50.840;4.386;2024-01-06T00:38:34;5.40;;;2.58;;
39674;SDS011;27790;50.840;4.386;2024-01-06T00:41:00;2.75;;;2.30;;
39674;SDS011;27790;50.840;4.386;2024-01-06T00:43:26;3.33;;;2.55;;
39674;SDS011;27790;50.840;4.386;2024-01-06T00:45:52;4.03;;;2.13;;
39674;SDS011;27790;50.840;4.386;2024-01-06T00:48:17;4.55;;;3.42;;
39674;SDS011;27790;50.840;4.386;2024-01-06T00:50:43;8.15;;;2.60;;
39674;SDS011;27790;50.840;4.386;2024-01-06T00:53:09;4.50;;;2.72;;
39674;SDS011;27790;50.840;4.386;2024-01-06T00:55:34;6.10;;;2.30;;
39674;SDS011;27790;50.840;4.386;2024-01-06T00:58:00;3.78;;;2.45;;
39674;SDS011;27790;50.840;4.386;2024-01-06T01:00:25;2.90;;;2.00;;
39674;SDS011;27790;50.840;4.386;2024-01-06T01:02:52;3.85;;;2.70;;
39674;SDS011;27790;50.840;4.386;2024-01-06T01:05:18;3.00;;;2.38;;
39674;SDS011;27790;50.840;4.386;2024-01-06T01:07:44;4.85;;;2.63;;
39674;SDS011;27790;50.840;4.386;2024-01-06T01:10:09;5.35;;;2.60;;
39674;SDS011;27790;50.840;4.386;2024-01-06T01:12:35;2.97;;;2.50;;
39674;SDS011;27790;50.840;4.386;2024-01-06T01:15:01;8.70;;;3.40;;
39674;SDS011;27790;50.840;4.386;2024-01-06T01:17:27;6.93;;;3.03;;
39674;SDS011;27790;50.840;4.386;2024-01-06T01:19:52;6.60;;;2.63;;
39674;SDS011;27790;50.840;4.386;2024-01-06T01:22:18;10.93;;;2.83;;
39674;SDS011;27790;50.840;4.386;2024-01-06T01:24:43;9.20;;;3.20;;
39674;SDS011;27790;50.840;4.386;2024-01-06T01:27:09;6.25;;;2.95;;
39674;SDS011;27790;50.840;4.386;2024-01-06T01:29:34;5.18;;;3.03;;
39674;SDS011;27790;50.840;4.386;2024-01-06T01:32:00;5.15;;;2.95;;
39674;SDS011;27790;50.840;4.386;2024-01-06T01:34:26;7.43;;;2.85;;
39674;SDS011;27790;50.840;4.386;2024-01-06T01:36:51;5.60;;;3.10;;
39674;SDS011;27790;50.840;4.386;2024-01-06T01:39:17;7.65;;;3.47;;
39674;SDS011;27790;50.840;4.386;2024-01-06T01:41:42;6.75;;;4.00;;
39674;SDS011;27790;50.840;4.386;2024-01-06T01:44:08;7.22;;;3.45;;
39674;SDS011;27790;50.840;4.386;2024-01-06T01:46:34;7.85;;;3.45;;
39674;SDS011;27790;50.840;4.386;2024-01-06T01:49:01;8.77;;;3.45;;
39674;SDS011;27790;50.840;4.386;2024-01-06T01:51:29;4.53;;;2.92;;
39674;SDS011;27790;50.840;4.386;2024-01-06T01:53:57;8.35;;;2.63;;
39674;SDS011;27790;50.840;4.386;2024-01-06T01:56:24;8.00;;;2.88;;
39674;SDS011;27790;50.840;4.386;2024-01-06T01:58:50;12.35;;;3.22;;
39674;SDS011;27790;50.840;4.386;2024-01-06T02:01:17;6.13;;;2.85;;
39674;SDS011;27790;50.840;4.386;2024-01-06T02:03:42;5.88;;;2.60;;
39674;SDS011;27790;50.840;4.386;2024-01-06T02:06:08;4.95;;;2.40;;
39674;SDS011;27790;50.840;4.386;2024-01-06T02:08:34;4.70;;;1.80;;
39674;SDS011;27790;50.840;4.386;2024-01-06T02:11:00;4.50;;;1.75;;
39674;SDS011;27790;50.840;4.386;2024-01-06T02:13:32;6.60;;;2.33;;
39674;SDS011;27790;50.840;4.386;2024-01-06T02:16:05;4.68;;;1.80;;
39674;SDS011;27790;50.840;4.386;2024-01-06T02:18:31;6.68;;;1.92;;
39674;SDS011;27790;50.840;4.386;2024-01-06T02:20:58;2.92;;;1.67;;
39674;SDS011;27790;50.840;4.386;2024-01-06T02:23:24;3.03;;;2.03;;
39674;SDS011;27790;50.840;4.386;2024-01-06T02:25:50;6.22;;;1.80;;
39674;SDS011;27790;50.840;4.386;2024-01-06T02:28:16;1.98;;;1.38;;
39674;SDS011;27790;50.840;4.386;2024-01-06T02:30:42;2.70;;;1.90;;
39674;SDS011;27790;50.840;4.386;2024-01-06T02:33:08;3.00;;;2.10;;
39674;SDS011;27790;50.840;4.386;2024-01-06T02:35:33;2.20;;;1.67;;
39674;SDS011;27790;50.840;4.386;2024-01-06T02:37:59;2.05;;;1.35;;
39674;SDS011;27790;50.840;4.386;2024-01-06T02:40:25;2.55;;;1.33;;
39674;SDS011;27790;50.840;4.386;2024-01-06T02:42:51;3.08;;;1.58;;
39674;SDS011;27790;50.840;4.386;2024-01-06T02:45:16;2.20;;;1.35;;
39674;SDS011;27790;50.840;4.386;2024-01-06T02:47:42;3.28;;;1.95;;
39674;SDS011;27790;50.840;4.386;2024-01-06T02:50:08;2.65;;;1.30;;
39674;SDS011;27790;50.840;4.386;2024-01-06T02:52:33;2.08;;;1.38;;
39674;SDS011;27790;50.840;4.386;2024-01-06T02:54:59;4.78;;;2.20;;
39674;SDS011;27790;50.840;4.386;2024-01-06T02:57:26;2.83;;;2.40;;
39674;SDS011;27790;50.840;4.386;2024-01-06T02:59:52;5.13;;;1.88;;
39674;SDS011;27790;50.840;4.386;2024-01-06T03:02:18;3.85;;;1.98;;
39674;SDS011;27790;50.840;4.386;2024-01-06T03:04:43;2.08;;;1.60;;
39674;SDS011;27790;50.840;4.386;2024-01-06T03:07:09;2.67;;;1.95;;
39674;SDS011;27790;50.840;4.386;2024-01-06T03:09:35;5.38;;;2.25;;
39674;SDS011;27790;50.840;4.386;2024-01-06T03:12:00;3.00;;;2.35;;
39674;SDS011;27790;50.840;4.386;2024-01-06T03:14:26;3.50;;;1.95;;
39674;SDS011;27790;50.840;4.386;2024-01-06T03:16:52;5.93;;;2.20;;
39674;SDS011;27790;50.840;4.386;2024-01-06T03:19:17;2.25;;;2.10;;
39674;SDS011;27790;50.840;4.386;2024-01-06T03:21:43;3.38;;;2.30;;
39674;SDS011;27790;50.840;4.386;2024-01-06T03:24:08;3.97;;;2.30;;
39674;SDS011;27790;50.840;4.386;2024-01-06T03:26:34;4.07;;;2.78;;
39674;SDS011;27790;50.840;4.386;2024-01-06T03:28:59;4.30;;;2.70;;
39674;SDS011;27790;50.840;4.386;2024-01-06T03:31:27;5.45;;;2.88;;
39674;SDS011;27790;50.840;4.386;2024-01-06T03:33:53;5.30;;;2.47;;
39674;SDS011;27790;50.840;4.386;2024-01-06T03:36:20;4.00;;;2.85;;
39674;SDS011;27790;50.840;4.386;2024-01-06T03:38:46;4.07;;;3.15;;
39674;SDS011;27790;50.840;4.386;2024-01-06T03:41:12;4.13;;;2.95;;
39674;SDS011;27790;50.840;4.386;2024-01-06T03:43:37;9.95;;;3.75;;
39674;SDS011;27790;50.840;4.386;2024-01-06T03:46:03;5.72;;;3.42;;
39674;SDS011;27790;50.840;4.386;2024-01-06T03:48:30;6.63;;;4.20;;
39674;SDS011;27790;50.840;4.386;2024-01-06T03:50:56;4.53;;;3.60;;
39674;SDS011;27790;50.840;4.386;2024-01-06T03:53:23;4.28;;;3.83;;
39674;SDS011;27790;50.840;4.386;2024-01-06T03:55:49;7.07;;;4.30;;
39674;SDS011;27790;50.840;4.386;2024-01-06T03:58:15;7.72;;;4.60;;
39674;SDS011;27790;50.840;4.386;2024-01-06T04:00:40;7.25;;;4.63;;
39674;SDS011;27790;50.840;4.386;2024-01-06T04:03:06;10.90;;;4.68;;
39674;SDS011;27790;50.840;4.386;2024-01-06T04:05:32;7.53;;;5.63;;
39674;SDS011;27790;50.840;4.386;2024-01-06T04:07:57;9.50;;;6.00;;
39674;SDS011;27790;50.840;4.386;2024-01-06T04:10:23;6.97;;;4.90;;
39674;SDS011;27790;50.840;4.386;2024-01-06T04:12:48;9.00;;;5.90;;
39674;SDS011;27790;50.840;4.386;2024-01-06T04:15:14;10.02;;;6.05;;
39674;SDS011;27790;50.840;4.386;2024-01-06T04:17:39;8.88;;;6.03;;
39674;SDS011;27790;50.840;4.386;2024-01-06T04:20:05;10.25;;;6.03;;
39674;SDS011;27790;50.840;4.386;2024-01-06T04:22:31;10.95;;;6.22;;
39674;SDS011;27790;50.840;4.386;2024-01-06T04:24:56;9.23;;;6.80;;
39674;SDS011;27790;50.840;4.386;2024-01-06T04:27:22;11.68;;;6.38;;
39674;SDS011;27790;50.840;4.386;2024-01-06T04:29:47;11.32;;;6.05;;
39674;SDS011;27790;50.840;4.386;2024-01-06T04:32:13;13.15;;;7.07;;
39674;SDS011;27790;50.840;4.386;2024-01-06T04:34:38;9.88;;;6.60;;
39674;SDS011;27790;50.840;4.386;2024-01-06T04:37:04;10.25;;;6.15;;
39674;SDS011;27790;50.840;4.386;2024-01-06T04:39:30;8.50;;;5.85;;
39674;SDS011;27790;50.840;4.386;2024-01-06T04:41:55;12.68;;;6.07;;
39674;SDS011;27790;50.840;4.386;2024-01-06T04:44:21;10.00;;;5.50;;
39674;SDS011;27790;50.840;4.386;2024-01-06T04:46:47;10.52;;;6.82;;
39674;SDS011;27790;50.840;4.386;2024-01-06T04:49:12;13.75;;;6.90;;
39674;SDS011;27790;50.840;4.386;2024-01-06T04:51:38;8.15;;;5.47;;
39674;SDS011;27790;50.840;4.386;2024-01-06T04:54:03;10.57;;;5.97;;
39674;SDS011;27790;50.840;4.386;2024-01-06T04:56:29;13.27;;;5.93;;
39674;SDS011;27790;50.840;4.386;2024-01-06T04:58:54;8.52;;;5.97;;
39674;SDS011;27790;50.840;4.386;2024-01-06T05:01:20;13.88;;;6.28;;
39674;SDS011;27790;50.840;4.386;2024-01-06T05:03:46;9.73;;;5.85;;
39674;SDS011;27790;50.840;4.386;2024-01-06T05:06:11;8.88;;;5.47;;
39674;SDS011;27790;50.840;4.386;2024-01-06T05:08:37;11.98;;;5.53;;
39674;SDS011;27790;50.840;4.386;2024-01-06T05:11:06;14.27;;;5.78;;
39674;SDS011;27790;50.840;4.386;2024-01-06T05:13:32;13.25;;;6.25;;
39674;SDS011;27790;50.840;4.386;2024-01-06T05:15:57;11.93;;;6.65;;
39674;SDS011;27790;50.840;4.386;2024-01-06T05:18:23;9.52;;;5.35;;
39674;SDS011;27790;50.840;4.386;2024-01-06T05:20:48;8.55;;;5.15;;
39674;SDS011;27790;50.840;4.386;2024-01-06T05:23:14;12.88;;;6.63;;
39674;SDS011;27790;50.840;4.386;2024-01-06T05:25:39;13.40;;;6.57;;
39674;SDS011;27790;50.840;4.386;2024-01-06T05:28:05;13.13;;;6.00;;
39674;SDS011;27790;50.840;4.386;2024-01-06T05:30:30;12.23;;;5.80;;
39674;SDS011;27790;50.840;4.386;2024-01-06T05:32:56;10.30;;;5.65;;
39674;SDS011;27790;50.840;4.386;2024-01-06T05:35:21;14.10;;;6.47;;
39674;SDS011;27790;50.840;4.386;2024-01-06T05:37:48;8.02;;;5.88;;
39674;SDS011;27790;50.840;4.386;2024-01-06T05:40:13;9.70;;;5.15;;
39674;SDS011;27790;50.840;4.386;2024-01-06T05:42:39;10.73;;;4.90;;
39674;SDS011;27790;50.840;4.386;2024-01-06T05:45:05;11.13;;;6.18;;
39674;SDS011;27790;50.840;4.386;2024-01-06T05:47:31;11.52;;;5.97;;
39674;SDS011;27790;50.840;4.386;2024-01-06T05:49:56;10.95;;;5.50;;
39674;SDS011;27790;50.840;4.386;2024-01-06T05:52:22;12.88;;;5.90;;
39674;SDS011;27790;50.840;4.386;2024-01-06T05:54:48;14.25;;;5.70;;
39674;SDS011;27790;50.840;4.386;2024-01-06T05:57:14;12.98;;;5.28;;
39674;SDS011;27790;50.840;4.386;2024-01-06T05:59:39;17.73;;;5.88;;
39674;SDS011;27790;50.840;4.386;2024-01-06T06:02:05;8.40;;;4.97;;
39674;SDS011;27790;50.840;4.386;2024-01-06T06:04:31;12.95;;;5.97;;
39674;SDS011;27790;50.840;4.386;2024-01-06T06:06:56;8.25;;;5.18;;
39674;SDS011;27790;50.840;4.386;2024-01-06T06:09:22;11.18;;;5.97;;
39674;SDS011;27790;50.840;4.386;2024-01-06T06:11:47;12.35;;;6.18;;
39674;SDS011;27790;50.840;4.386;2024-01-06T06:14:13;9.65;;;5.95;;
39674;SDS011;27790;50.840;4.386;2024-01-06T06:16:39;11.77;;;5.45;;
39674;SDS011;27790;50.840;4.386;2024-01-06T06:19:04;12.65;;;5.10;;
39674;SDS011;27790;50.840;4.386;2024-01-06T06:21:30;11.40;;;6.35;;
39674;SDS011;27790;50.840;4.386;2024-01-06T06:23:56;11.43;;;5.75;;
39674;SDS011;27790;50.840;4.386;2024-01-06T06:26:22;11.75;;;5.68;;
39674;SDS011;27790;50.840;4.386;2024-01-06T06:28:47;7.63;;;4.93;;
39674;SDS011;27790;50.840;4.386;2024-01-06T06:31:13;9.43;;;5.32;;
39674;SDS011;27790;50.840;4.386;2024-01-06T06:33:38;9.40;;;5.03;;
39674;SDS011;27790;50.840;4.386;2024-01-06T06:36:04;8.05;;;4.25;;
39674;SDS011;27790;50.840;4.386;2024-01-06T06:38:30;6.60;;;4.50;;
39674;SDS011;27790;50.840;4.386;2024-01-06T06:40:55;7.63;;;4.05;;
39674;SDS011;27790;50.840;4.386;2024-01-06T06:43:21;5.45;;;4.28;;
39674;SDS011;27790;50.840;4.386;2024-01-06T06:45:47;7.90;;;4.45;;
39674;SDS011;27790;50.840;4.386;2024-01-06T06:48:12;8.45;;;4.15;;
39674;SDS011;27790;50.840;4.386;2024-01-06T06:50:38;7.47;;;3.97;;
39674;SDS011;27790;50.840;4.386;2024-01-06T06:53:05;9.80;;;4.40;;
39674;SDS011;27790;50.840;4.386;2024-01-06T06:55:31;8.02;;;5.57;;
39674;SDS011;27790;50.840;4.386;2024-01-06T06:57:57;12.30;;;6.82;;
39674;SDS011;27790;50.840;4.386;2024-01-06T07:00:22;11.57;;;4.43;;
39674;SDS011;27790;50.840;4.386;2024-01-06T07:02:48;11.50;;;5.43;;
39674;SDS011;27790;50.840;4.386;2024-01-06T07:05:13;11.13;;;4.90;;
39674;SDS011;27790;50.840;4.386;2024-01-06T07:07:39;9.13;;;5.55;;
39674;SDS011;27790;50.840;4.386;2024-01-06T07:10:05;11.27;;;5.18;;
39674;SDS011;27790;50.840;4.386;2024-01-06T07:12:31;8.32;;;5.88;;
39674;SDS011;27790;50.840;4.386;2024-01-06T07:14:57;11.52;;;5.40;;
39674;SDS011;27790;50.840;4.386;2024-01-06T07:17:25;9.82;;;5.60;;
39674;SDS011;27790;50.840;4.386;2024-01-06T07:19:51;9.65;;;6.45;;
39674;SDS011;27790;50.840;4.386;2024-01-06T07:22:17;10.65;;;5.70;;
39674;SDS011;27790;50.840;4.386;2024-01-06T07:24:43;11.40;;;6.43;;
39674;SDS011;27790;50.840;4.386;2024-01-06T07:27:09;11.43;;;6.53;;
39674;SDS011;27790;50.840;4.386;2024-01-06T07:29:34;13.48;;;6.90;;
39674;SDS011;27790;50.840;4.386;2024-01-06T07:32:00;17.40;;;7.82;;
39674;SDS011;27790;50.840;4.386;2024-01-06T07:34:25;17.77;;;7.25;;
39674;SDS011;27790;50.840;4.386;2024-01-06T07:36:51;15.43;;;7.47;;
39674;SDS011;27790;50.840;4.386;2024-01-06T07:39:16;14.00;;;7.68;;
39674;SDS011;27790;50.840;4.386;2024-01-06T07:41:42;34.65;;;17.38;;
39674;SDS011;27790;50.840;4.386;2024-01-06T07:44:07;21.73;;;10.70;;
39674;SDS011;27790;50.840;4.386;2024-01-06T07:46:33;13.10;;;8.20;;
39674;SDS011;27790;50.840;4.386;2024-01-06T07:49:00;15.10;;;7.75;;
39674;SDS011;27790;50.840;4.386;2024-01-06T07:51:25;13.38;;;8.27;;
39674;SDS011;27790;50.840;4.386;2024-01-06T07:53:51;16.30;;;8.45;;
39674;SDS011;27790;50.840;4.386;2024-01-06T07:56:16;13.65;;;7.15;;
39674;SDS011;27790;50.840;4.386;2024-01-06T07:58:43;13.27;;;7.97;;
39674;SDS011;27790;50.840;4.386;2024-01-06T08:01:08;11.95;;;8.07;;
39674;SDS011;27790;50.840;4.386;2024-01-06T08:03:34;14.20;;;9.00;;
39674;SDS011;27790;50.840;4.386;2024-01-06T08:05:59;15.65;;;7.43;;
39674;SDS011;27790;50.840;4.386;2024-01-06T08:08:25;16.70;;;7.45;;
39674;SDS011;27790;50.840;4.386;2024-01-06T08:10:51;12.10;;;7.38;;
39674;SDS011;27790;50.840;4.386;2024-01-06T08:13:17;11.82;;;6.30;;
39674;SDS011;27790;50.840;4.386;2024-01-06T08:15:42;11.57;;;7.03;;
39674;SDS011;27790;50.840;4.386;2024-01-06T08:18:08;11.63;;;7.07;;
39674;SDS011;27790;50.840;4.386;2024-01-06T08:20:33;10.10;;;6.78;;
39674;SDS011;27790;50.840;4.386;2024-01-06T08:22:59;12.18;;;7.57;;
39674;SDS011;27790;50.840;4.386;2024-01-06T08:25:25;9.93;;;6.90;;
39674;SDS011;27790;50.840;4.386;2024-01-06T08:27:50;12.65;;;7.32;;
39674;SDS011;27790;50.840;4.386;2024-01-06T08:30:16;13.70;;;6.90;;
39674;SDS011;27790;50.840;4.386;2024-01-06T08:32:41;11.38;;;6.70;;
39674;SDS011;27790;50.840;4.386;2024-01-06T08:35:07;10.75;;;6.47;;
39674;SDS011;27790;50.840;4.386;2024-01-06T08:37:33;11.45;;;6.55;;
39674;SDS011;27790;50.840;4.386;2024-01-06T08:39:58;10.13;;;5.22;;
39674;SDS011;27790;50.840;4.386;2024-01-06T08:42:24;8.45;;;5.47;;
39674;SDS011;27790;50.840;4.386;2024-01-06T08:44:50;12.48;;;5.65;;
39674;SDS011;27790;50.840;4.386;2024-01-06T08:47:16;7.60;;;5.57;;
39674;SDS011;27790;50.840;4.386;2024-01-06T08:49:42;8.30;;;4.95;;
39674;SDS011;27790;50.840;4.386;2024-01-06T08:52:07;7.03;;;4.90;;
39674;SDS011;27790;50.840;4.386;2024-01-06T08:54:33;9.25;;;5.50;;
39674;SDS011;27790;50.840;4.386;2024-01-06T08:56:59;8.77;;;4.47;;
39674;SDS011;27790;50.840;4.386;2024-01-06T08:59:25;6.95;;;4.95;;
39674;SDS011;27790;50.840;4.386;2024-01-06T09:01:50;5.25;;;3.97;;
39674;SDS011;27790;50.840;4.386;2024-01-06T09:04:17;15.18;;;5.25;;
39674;SDS011;27790;50.840;4.386;2024-01-06T09:06:42;7.03;;;4.50;;
39674;SDS011;27790;50.840;4.386;2024-01-06T09:09:08;5.30;;;4.63;;
39674;SDS011;27790;50.840;4.386;2024-01-06T09:11:34;7.82;;;4.55;;
39674;SDS011;27790;50.840;4.386;2024-01-06T09:14:00;16.08;;;5.70;;
39674;SDS011;27790;50.840;4.386;2024-01-06T09:16:26;8.68;;;4.63;;
39674;SDS011;27790;50.840;4.386;2024-01-06T09:18:51;10.05;;;5.40;;
39674;SDS011;27790;50.840;4.386;2024-01-06T09:21:17;9.32;;;4.82;;
39674;SDS011;27790;50.840;4.386;2024-01-06T09:23:43;8.23;;;5.18;;
39674;SDS011;27790;50.840;4.386;2024-01-06T09:26:09;9.25;;;5.35;;
39674;SDS011;27790;50.840;4.386;2024-01-06T09:28:34;8.45;;;4.78;;
39674;SDS011;27790;50.840;4.386;2024-01-06T09:31:00;6.28;;;5.03;;
39674;SDS011;27790;50.840;4.386;2024-01-06T09:33:25;7.53;;;4.75;;
39674;SDS011;27790;50.840;4.386;2024-01-06T09:35:51;11.07;;;5.25;;
39674;SDS011;27790;50.840;4.386;2024-01-06T09:38:17;10.07;;;5.68;;
39674;SDS011;27790;50.840;4.386;2024-01-06T09:40:43;7.20;;;5.35;;
39674;SDS011;27790;50.840;4.386;2024-01-06T09:43:10;9.30;;;6.28;;
39674;SDS011;27790;50.840;4.386;2024-01-06T09:45:36;10.85;;;5.55;;
39674;SDS011;27790;50.840;4.386;2024-01-06T09:48:12;9.45;;;5.22;;
39674;SDS011;27790;50.840;4.386;2024-01-06T09:50:42;7.18;;;4.95;;
39674;SDS011;27790;50.840;4.386;2024-01-06T09:53:10;9.00;;;5.40;;
39674;SDS011;27790;50.840;4.386;2024-01-06T09:55:36;7.07;;;5.25;;
39674;SDS011;27790;50.840;4.386;2024-01-06T09:58:03;9.05;;;5.72;;
39674;SDS011;27790;50.840;4.386;2024-01-06T10:00:30;6.13;;;4.47;;
39674;SDS011;27790;50.840;4.386;2024-01-06T10:02:55;7.90;;;4.15;;
39674;SDS011;27790;50.840;4.386;2024-01-06T10:05:21;7.85;;;4.63;;
39674;SDS011;27790;50.840;4.386;2024-01-06T10:07:47;8.52;;;4.80;;
39674;SDS011;27790;50.840;4.386;2024-01-06T10:10:13;8.23;;;5.28;;
39674;SDS011;27790;50.840;4.386;2024-01-06T10:12:42;9.85;;;5.20;;
39674;SDS011;27790;50.840;4.386;2024-01-06T10:15:09;10.27;;;5.20;;
39674;SDS011;27790;50.840;4.386;2024-01-06T10:17:36;9.80;;;5.45;;
39674;SDS011;27790;50.840;4.386;2024-01-06T10:20:05;7.45;;;4.78;;
39674;SDS011;27790;50.840;4.386;2024-01-06T10:22:35;8.95;;;4.85;;
39674;SDS011;27790;50.840;4.386;2024-01-06T10:25:02;8.27;;;4.47;;
39674;SDS011;27790;50.840;4.386;2024-01-06T10:27:29;9.80;;;4.72;;
39674;SDS011;27790;50.840;4.386;2024-01-06T10:29:55;8.18;;;5.45;;
39674;SDS011;27790;50.840;4.386;2024-01-06T10:32:21;16.65;;;5.32;;
39674;SDS011;27790;50.840;4.386;2024-01-06T10:34:46;8.95;;;4.75;;
39674;SDS011;27790;50.840;4.386;2024-01-06T10:37:12;13.57;;;5.90;;
39674;SDS011;27790;50.840;4.386;2024-01-06T10:39:37;8.82;;;4.72;;
39674;SDS011;27790;50.840;4.386;2024-01-06T10:42:03;7.50;;;4.93;;
39674;SDS011;27790;50.840;4.386;2024-01-06T10:44:31;7.35;;;4.88;;
39674;SDS011;27790;50.840;4.386;2024-01-06T10:46:58;6.55;;;4.38;;
39674;SDS011;27790;50.840;4.386;2024-01-06T10:49:25;7.03;;;4.72;;
39674;SDS011;27790;50.840;4.386;2024-01-06T10:51:53;11.20;;;4.07;;
39674;SDS011;27790;50.840;4.386;2024-01-06T10:54:19;9.38;;;4.28;;
39674;SDS011;27790;50.840;4.386;2024-01-06T10:56:46;6.82;;;4.05;;
39674;SDS011;27790;50.840;4.386;2024-01-06T10:59:13;6.13;;;4.13;;
39674;SDS011;27790;50.840;4.386;2024-01-06T11:01:39;9.35;;;4.65;;
39674;SDS011;27790;50.840;4.386;2024-01-06T11:04:06;6.30;;;4.53;;
39674;SDS011;27790;50.840;4.386;2024-01-06T11:06:32;8.57;;;4.82;;
39674;SDS011;27790;50.840;4.386;2024-01-06T11:11:47;6.65;;;4.53;;
39674;SDS011;27790;50.840;4.386;2024-01-06T11:14:17;11.48;;;6.32;;
39674;SDS011;27790;50.840;4.386;2024-01-06T11:16:47;8.25;;;5.38;;
39674;SDS011;27790;50.840;4.386;2024-01-06T11:22:24;10.07;;;6.07;;
39674;SDS011;27790;50.840;4.386;2024-01-06T11:24:57;9.32;;;4.95;;
39674;SDS011;27790;50.840;4.386;2024-01-06T11:27:30;7.03;;;5.22;;
39674;SDS011;27790;50.840;4.386;2024-01-06T11:29:59;6.22;;;4.97;;
39674;SDS011;27790;50.840;4.386;2024-01-06T11:32:33;9.55;;;4.32;;
39674;SDS011;27790;50.840;4.386;2024-01-06T11:35:11;6.38;;;4.45;;
39674;SDS011;27790;50.840;4.386;2024-01-06T11:40:15;8.82;;;5.75;;
39674;SDS011;27790;50.840;4.386;2024-01-06T11:42:42;7.03;;;4.93;;
39674;SDS011;27790;50.840;4.386;2024-01-06T11:45:09;7.40;;;5.72;;
39674;SDS011;27790;50.840;4.386;2024-01-06T11:47:34;10.48;;;5.97;;
39674;SDS011;27790;50.840;4.386;2024-01-06T11:50:02;4.85;;;4.22;;
39674;SDS011;27790;50.840;4.386;2024-01-06T11:52:34;6.22;;;4.75;;
39674;SDS011;27790;50.840;4.386;2024-01-06T11:55:00;7.78;;;4.43;;
39674;SDS011;27790;50.840;4.386;2024-01-06T11:57:26;9.05;;;5.95;;
39674;SDS011;27790;50.840;4.386;2024-01-06T11:59:53;7.68;;;5.03;;
39674;SDS011;27790;50.840;4.386;2024-01-06T12:02:18;8.32;;;5.70;;
39674;SDS011;27790;50.840;4.386;2024-01-06T12:04:47;8.02;;;5.47;;
39674;SDS011;27790;50.840;4.386;2024-01-06T12:07:17;6.13;;;4.75;;
39674;SDS011;27790;50.840;4.386;2024-01-06T12:09:44;6.22;;;4.95;;
39674;SDS011;27790;50.840;4.386;2024-01-06T12:12:11;8.27;;;5.28;;
39674;SDS011;27790;50.840;4.386;2024-01-06T12:14:41;10.82;;;6.25;;
39674;SDS011;27790;50.840;4.386;2024-01-06T12:17:10;12.32;;;5.60;;
39674;SDS011;27790;50.840;4.386;2024-01-06T12:19:38;7.25;;;5.30;;
39674;SDS011;27790;50.840;4.386;2024-01-06T12:22:04;10.02;;;5.18;;
39674;SDS011;27790;50.840;4.386;2024-01-06T12:24:30;8.00;;;4.03;;
39674;SDS011;27790;50.840;4.386;2024-01-06T12:26:56;7.65;;;5.00;;
39674;SDS011;27790;50.840;4.386;2024-01-06T12:29:23;9.02;;;5.80;;
39674;SDS011;27790;50.840;4.386;2024-01-06T12:31:52;8.77;;;4.70;;
39674;SDS011;27790;50.840;4.386;2024-01-06T12:34:18;5.65;;;4.05;;
39674;SDS011;27790;50.840;4.386;2024-01-06T12:36:44;6.18;;;4.10;;
39674;SDS011;27790;50.840;4.386;2024-01-06T12:39:11;6.32;;;4.22;;
39674;SDS011;27790;50.840;4.386;2024-01-06T12:41:41;6.25;;;4.13;;
39674;SDS011;27790;50.840;4.386;2024-01-06T12:44:08;7.80;;;4.63;;
39674;SDS011;27790;50.840;4.386;2024-01-06T12:46:34;5.47;;;4.50;;
39674;SDS011;27790;50.840;4.386;2024-01-06T12:48:59;6.70;;;4.10;;
39674;SDS011;27790;50.840;4.386;2024-01-06T12:51:25;6.88;;;5.18;;
39674;SDS011;27790;50.840;4.386;2024-01-06T12:53:50;7.47;;;5.22;;
39674;SDS011;27790;50.840;4.386;2024-01-06T12:56:16;7.28;;;4.40;;
39674;SDS011;27790;50.840;4.386;2024-01-06T12:58:42;5.50;;;4.47;;
39674;SDS011;27790;50.840;4.386;2024-01-06T13:01:08;6.00;;;4.20;;
39674;SDS011;27790;50.840;4.386;2024-01-06T13:03:34;8.43;;;4.30;;
39674;SDS011;27790;50.840;4.386;2024-01-06T13:06:00;8.18;;;4.32;;
39674;SDS011;27790;50.840;4.386;2024-01-06T13:08:26;7.80;;;5.30;;
39674;SDS011;27790;50.840;4.386;2024-01-06T13:10:52;14.27;;;5.53;;
39674;SDS011;27790;50.840;4.386;2024-01-06T13:13:21;7.88;;;4.78;;
39674;SDS011;27790;50.840;4.386;2024-01-06T13:15:47;9.18;;;4.03;;
39674;SDS011;27790;50.840;4.386;2024-01-06T13:18:13;6.22;;;3.92;;
39674;SDS011;27790;50.840;4.386;2024-01-06T13:20:38;7.57;;;4.15;;
39674;SDS011;27790;50.840;4.386;2024-01-06T13:23:06;10.93;;;4.45;;
39674;SDS011;27790;50.840;4.386;2024-01-06T13:25:32;6.07;;;4.10;;
39674;SDS011;27790;50.840;4.386;2024-01-06T13:27:58;4.38;;;3.67;;
39674;SDS011;27790;50.840;4.386;2024-01-06T13:30:24;5.43;;;4.18;;
39674;SDS011;27790;50.840;4.386;2024-01-06T13:32:50;10.80;;;4.35;;
39674;SDS011;27790;50.840;4.386;2024-01-06T13:35:19;4.55;;;3.92;;
39674;SDS011;27790;50.840;4.386;2024-01-06T13:37:45;8.02;;;4.07;;
39674;SDS011;27790;50.840;4.386;2024-01-06T13:40:13;7.75;;;4.47;;
39674;SDS011;27790;50.840;4.386;2024-01-06T13:42:39;4.82;;;4.00;;
39674;SDS011;27790;50.840;4.386;2024-01-06T13:45:05;7.55;;;4.50;;
39674;SDS011;27790;50.840;4.386;2024-01-06T13:47:31;4.70;;;4.05;;
39674;SDS011;27790;50.840;4.386;2024-01-06T13:49:57;6.55;;;4.25;;
39674;SDS011;27790;50.840;4.386;2024-01-06T13:52:23;6.40;;;4.50;;
39674;SDS011;27790;50.840;4.386;2024-01-06T13:54:49;9.70;;;4.00;;
39674;SDS011;27790;50.840;4.386;2024-01-06T13:57:15;4.32;;;2.90;;
39674;SDS011;27790;50.840;4.386;2024-01-06T13:59:40;6.25;;;4.05;;
39674;SDS011;27790;50.840;4.386;2024-01-06T14:02:08;6.13;;;4.45;;
39674;SDS011;27790;50.840;4.386;2024-01-06T14:04:34;5.97;;;4.40;;
39674;SDS011;27790;50.840;4.386;2024-01-06T14:07:00;5.93;;;3.85;;
39674;SDS011;27790;50.840;4.386;2024-01-06T14:09:27;6.88;;;4.70;;
39674;SDS011;27790;50.840;4.386;2024-01-06T14:11:53;6.10;;;3.78;;
39674;SDS011;27790;50.840;4.386;2024-01-06T14:14:19;10.98;;;4.13;;
39674;SDS011;27790;50.840;4.386;2024-01-06T14:16:45;4.07;;;3.67;;
39674;SDS011;27790;50.840;4.386;2024-01-06T14:19:12;6.82;;;4.40;;
39674;SDS011;27790;50.840;4.386;2024-01-06T14:21:37;4.68;;;4.18;;
39674;SDS011;27790;50.840;4.386;2024-01-06T14:24:04;4.97;;;4.40;;
39674;SDS011;27790;50.840;4.386;2024-01-06T14:26:30;8.40;;;4.03;;
39674;SDS011;27790;50.840;4.386;2024-01-06T14:28:56;4.80;;;3.42;;
39674;SDS011;27790;50.840;4.386;2024-01-06T14:31:23;4.80;;;4.03;;
39674;SDS011;27790;50.840;4.386;2024-01-06T14:33:49;6.88;;;3.67;;
39674;SDS011;27790;50.840;4.386;2024-01-06T14:36:14;6.60;;;3.33;;
39674;SDS011;27790;50.840;4.386;2024-01-06T14:38:40;5.63;;;4.55;;
39674;SDS011;27790;50.840;4.386;2024-01-06T14:41:06;5.95;;;4.25;;
39674;SDS011;27790;50.840;4.386;2024-01-06T14:43:31;7.15;;;4.15;;
39674;SDS011;27790;50.840;4.386;2024-01-06T14:45:57;5.40;;;3.63;;